createdAt,value
2018-12-20T00:01:21.451Z,82.60
2018-12-20T00:03:50.392Z,82.53
2018-12-20T00:06:19.388Z,82.64
2018-12-20T00:08:48.289Z,81.41
2018-12-20T00:11:17.261Z,82.42
2018-12-20T00:13:46.074Z,82.34
2018-12-20T00:16:14.883Z,82.41
2018-12-20T00:18:43.837Z,82.48
2018-12-20T00:21:12.742Z,82.85
2018-12-20T00:23:41.795Z,82.88
2018-12-20T00:26:10.609Z,82.47
2018-12-20T00:28:39.413Z,83.06
2018-12-20T00:31:13.601Z,83.31
2018-12-20T00:33:37.325Z,83.18
2018-12-20T00:36:06.249Z,83.04
2018-12-20T00:38:35.134Z,82.80
2018-12-20T00:41:04.062Z,81.70
2018-12-20T00:43:32.980Z,80.49
2018-12-20T00:46:01.838Z,81.49
2018-12-20T00:48:30.926Z,81.21
2018-12-20T00:50:59.840Z,81.43
2018-12-20T00:53:28.576Z,80.43
2018-12-20T00:55:57.441Z,81.34
2018-12-20T00:58:26.356Z,81.00
2018-12-20T01:00:55.287Z,80.87
2018-12-20T01:03:24.218Z,81.05
2018-12-20T01:05:53.115Z,81.12
2018-12-20T01:08:21.997Z,81.74
2018-12-20T01:10:50.973Z,81.96
2018-12-20T01:13:19.866Z,81.27
2018-12-20T01:15:48.707Z,81.76
2018-12-20T01:18:17.609Z,81.77
2018-12-20T01:20:46.686Z,81.40
2018-12-20T01:23:15.447Z,81.62
2018-12-20T01:25:44.426Z,82.05
2018-12-20T01:28:13.438Z,81.93
2018-12-20T01:30:42.193Z,81.04
2018-12-20T01:33:11.320Z,81.62
2018-12-20T01:35:39.978Z,81.73
2018-12-20T01:38:09.167Z,81.43
2018-12-20T01:40:37.966Z,81.52
2018-12-20T01:43:06.988Z,80.36
2018-12-20T01:45:35.900Z,80.79
2018-12-20T01:48:04.684Z,80.85
2018-12-20T01:50:33.456Z,80.65
2018-12-20T01:53:02.399Z,80.24
2018-12-20T01:55:31.211Z,80.58
2018-12-20T01:58:00.129Z,80.74
2018-12-20T02:00:28.996Z,81.19
2018-12-20T02:02:57.855Z,81.82
2018-12-20T02:05:26.842Z,81.43
2018-12-20T02:07:55.655Z,81.69
2018-12-20T02:10:24.773Z,80.40
2018-12-20T02:12:53.540Z,80.07
2018-12-20T02:15:22.339Z,81.26
2018-12-20T02:17:51.220Z,80.90
2018-12-20T02:20:20.111Z,81.00
2018-12-20T02:22:49.012Z,81.30
2018-12-20T02:25:18.026Z,81.19
2018-12-20T02:27:46.937Z,81.22
2018-12-20T02:30:15.697Z,81.64
2018-12-20T02:32:44.830Z,81.14
2018-12-20T02:35:13.563Z,81.01
2018-12-20T02:37:42.357Z,81.26
2018-12-20T02:40:11.293Z,81.82
2018-12-20T02:42:40.220Z,81.48
2018-12-20T02:45:11.011Z,81.06
2018-12-20T02:47:38.173Z,80.65
2018-12-20T02:50:06.895Z,80.93
2018-12-20T02:52:35.850Z,81.02
2018-12-20T02:55:04.781Z,81.81
2018-12-20T02:57:33.643Z,81.71
2018-12-20T03:00:02.580Z,81.28
2018-12-20T03:02:31.538Z,82.30
2018-12-20T03:05:00.428Z,82.05
2018-12-20T03:07:29.238Z,81.95
2018-12-20T03:09:58.151Z,81.81
2018-12-20T03:12:27.162Z,81.94
2018-12-20T03:14:56.142Z,81.82
2018-12-20T03:17:24.857Z,82.14
2018-12-20T03:19:53.742Z,82.30
2018-12-20T03:22:22.664Z,82.35
2018-12-20T03:24:51.551Z,81.50
2018-12-20T03:27:20.451Z,82.39
2018-12-20T03:29:49.490Z,82.02
2018-12-20T03:32:18.248Z,80.70
2018-12-20T03:34:47.185Z,81.66
2018-12-20T03:37:16.132Z,81.18
2018-12-20T03:39:45.136Z,81.14
2018-12-20T03:42:13.950Z,82.06
2018-12-20T03:44:42.975Z,81.54
2018-12-20T03:47:11.824Z,82.09
2018-12-20T03:49:40.802Z,82.07
2018-12-20T03:52:09.648Z,82.18
2018-12-20T03:54:38.541Z,81.98
2018-12-20T03:57:07.529Z,82.13
2018-12-20T03:59:36.425Z,82.67
2018-12-20T04:02:05.284Z,82.16
2018-12-20T04:04:34.158Z,81.76
2018-12-20T04:07:03.172Z,82.27
2018-12-20T04:09:32.023Z,81.98
2018-12-20T04:12:01.180Z,82.35
2018-12-20T04:14:30.049Z,81.88
2018-12-20T04:16:58.734Z,82.16
2018-12-20T04:19:27.660Z,82.49
2018-12-20T04:21:56.654Z,82.88
2018-12-20T04:24:25.668Z,82.92
2018-12-20T04:26:54.692Z,82.99
2018-12-20T04:29:23.517Z,81.04
2018-12-20T04:31:52.429Z,82.28
2018-12-20T04:34:21.185Z,82.12
2018-12-20T04:36:50.120Z,82.33
2018-12-20T04:39:18.953Z,82.36
2018-12-20T04:41:48.023Z,82.22
2018-12-20T04:44:16.914Z,82.08
2018-12-20T04:46:45.771Z,82.23
2018-12-20T04:49:14.674Z,81.49
2018-12-20T04:51:43.752Z,81.46
2018-12-20T04:54:12.556Z,81.28
2018-12-20T04:56:41.552Z,82.32
2018-12-20T04:59:10.352Z,82.13
2018-12-20T05:01:39.272Z,82.45
2018-12-20T05:04:08.459Z,81.86
2018-12-20T05:06:37.128Z,81.74
2018-12-20T05:09:07.276Z,82.07
2018-12-20T05:11:36.260Z,81.93
2018-12-20T05:14:05.156Z,81.80
2018-12-20T05:16:34.089Z,81.65
2018-12-20T05:19:02.918Z,81.51
2018-12-20T05:21:31.824Z,82.25
2018-12-20T05:24:00.737Z,81.73
2018-12-20T05:26:29.793Z,81.80
2018-12-20T05:28:58.739Z,81.75
2018-12-20T05:31:27.430Z,81.30
2018-12-20T05:33:56.347Z,80.99
2018-12-20T05:36:25.410Z,81.70
2018-12-20T05:38:54.155Z,81.80
2018-12-20T05:41:23.048Z,81.56
2018-12-20T05:43:52.032Z,82.09
2018-12-20T05:46:21.048Z,81.82
2018-12-20T05:48:49.931Z,81.67
2018-12-20T05:51:18.922Z,82.20
2018-12-20T05:53:47.972Z,82.59
2018-12-20T05:56:16.626Z,80.80
2018-12-20T05:58:45.541Z,81.94
2018-12-20T06:01:14.456Z,81.58
2018-12-20T06:03:43.373Z,81.53
2018-12-20T06:06:12.304Z,81.59
2018-12-20T06:08:41.226Z,81.64
2018-12-20T06:11:10.120Z,81.84
2018-12-20T06:13:39.241Z,82.16
2018-12-20T06:16:12.945Z,81.04
2018-12-20T06:18:38.004Z,82.05
2018-12-20T06:21:07.028Z,82.31
2018-12-20T06:23:35.761Z,83.28
2018-12-20T06:26:04.734Z,82.58
2018-12-20T06:28:33.539Z,82.72
2018-12-20T06:31:02.546Z,82.62
2018-12-20T06:33:31.417Z,82.36
2018-12-20T06:36:00.333Z,82.38
2018-12-20T06:38:29.216Z,81.95
2018-12-20T06:40:58.168Z,82.04
2018-12-20T06:43:27.099Z,83.18
2018-12-20T06:45:55.924Z,82.66
2018-12-20T06:48:24.832Z,83.20
2018-12-20T06:50:53.756Z,83.16
2018-12-20T06:53:22.732Z,82.88
2018-12-20T06:55:51.597Z,82.85
2018-12-20T06:58:20.500Z,82.45
2018-12-20T07:00:49.526Z,82.57
2018-12-20T07:03:18.429Z,82.47
2018-12-20T07:05:47.292Z,82.44
2018-12-20T07:08:16.242Z,83.02
2018-12-20T07:10:45.083Z,83.40
2018-12-20T07:13:13.957Z,84.19
2018-12-20T07:15:42.872Z,84.35
2018-12-20T07:18:11.779Z,84.44
2018-12-20T07:20:40.754Z,85.12
2018-12-20T07:23:09.653Z,84.64
2018-12-20T07:25:38.554Z,84.46
2018-12-20T07:28:07.455Z,85.33
2018-12-20T07:30:36.370Z,84.75
2018-12-20T07:33:05.328Z,84.62
2018-12-20T07:35:34.234Z,84.33
2018-12-20T07:38:03.182Z,84.47
2018-12-20T07:40:32.076Z,84.14
2018-12-20T07:43:00.980Z,84.25
2018-12-20T07:45:29.844Z,83.73
2018-12-20T07:47:58.745Z,83.55
2018-12-20T07:50:34.267Z,83.81
2018-12-20T07:53:13.938Z,83.21
2018-12-20T07:55:51.335Z,83.50
2018-12-20T07:58:21.225Z,83.14
2018-12-20T08:00:55.581Z,82.86
2018-12-20T08:03:25.268Z,83.35
2018-12-20T08:05:55.358Z,83.12
2018-12-20T08:08:25.059Z,83.03
2018-12-20T08:10:55.613Z,82.62
2018-12-20T08:13:37.596Z,83.27
2018-12-20T08:16:08.613Z,83.27
2018-12-20T08:18:42.312Z,81.67
2018-12-20T08:21:09.739Z,82.38
2018-12-20T08:23:41.564Z,82.50
2018-12-20T08:26:11.725Z,81.82
2018-12-20T08:28:42.757Z,81.67
2018-12-20T08:32:00.451Z,80.91
2018-12-20T08:34:37.050Z,81.85
2018-12-20T08:37:51.654Z,81.96
2018-12-20T08:40:45.779Z,82.03
2018-12-20T08:43:13.815Z,81.49
2018-12-20T08:46:06.933Z,81.86
2018-12-20T08:48:39.196Z,81.14
2018-12-20T08:51:14.562Z,81.43
2018-12-20T08:53:46.453Z,80.74
2018-12-20T08:56:34.212Z,81.44
2018-12-20T08:59:08.772Z,80.89
2018-12-20T09:01:37.957Z,81.28
2018-12-20T09:04:09.893Z,81.08
2018-12-20T09:06:43.128Z,81.18
2018-12-20T09:09:15.274Z,81.26
2018-12-20T09:11:44.727Z,81.17
2018-12-20T09:14:16.231Z,80.86
2018-12-20T09:16:47.586Z,80.76
2018-12-20T09:19:17.071Z,80.94
2018-12-20T09:21:48.322Z,80.76
2018-12-20T09:24:21.426Z,81.21
2018-12-20T09:26:53.291Z,81.44
2018-12-20T09:29:28.273Z,81.33
2018-12-20T09:31:59.193Z,81.36
2018-12-20T09:34:28.821Z,81.20
2018-12-20T09:37:06.642Z,81.04
2018-12-20T09:39:36.175Z,80.63
2018-12-20T09:42:05.688Z,80.28
2018-12-20T09:44:35.221Z,80.31
2018-12-20T09:47:22.878Z,80.42
2018-12-20T09:49:55.940Z,80.25
2018-12-20T09:52:25.323Z,80.36
2018-12-20T09:54:54.914Z,80.81
2018-12-20T10:01:22.450Z,79.84
2018-12-20T10:03:52.099Z,80.14
2018-12-20T10:06:33.426Z,79.63
2018-12-20T10:09:03.980Z,79.89
2018-12-20T10:11:36.030Z,79.13
2018-12-20T10:14:12.547Z,79.07
2018-12-20T10:16:44.471Z,79.08
2018-12-20T10:19:18.268Z,77.08
2018-12-20T10:21:48.829Z,78.48
2018-12-20T10:24:28.256Z,78.28
2018-12-20T10:26:58.211Z,78.81
2018-12-20T10:29:28.255Z,78.40
2018-12-20T10:31:57.734Z,78.51
2018-12-20T10:34:27.608Z,78.42
2018-12-20T10:36:57.706Z,78.40
2018-12-20T10:39:26.887Z,78.47
2018-12-20T10:41:59.717Z,78.80
2018-12-20T10:44:28.912Z,79.23
2018-12-20T10:47:17.507Z,79.25
2018-12-20T10:49:49.699Z,79.12
2018-12-20T10:52:19.513Z,78.82
2018-12-20T10:54:48.845Z,79.00
2018-12-20T10:57:21.788Z,79.04
2018-12-20T10:59:51.191Z,80.23
2018-12-20T11:02:41.054Z,80.02
2018-12-20T11:05:43.419Z,80.66
2018-12-20T11:08:27.757Z,81.06
2018-12-20T11:11:11.558Z,81.53
2018-12-20T11:13:50.756Z,81.71
2018-12-20T11:16:26.786Z,82.45
2018-12-20T11:18:58.614Z,82.63
2018-12-20T11:21:28.821Z,82.85
2018-12-20T11:23:58.417Z,84.06
2018-12-20T11:26:27.931Z,84.48
2018-12-20T11:28:59.073Z,83.91
2018-12-20T11:32:04.311Z,82.27
2018-12-20T11:34:40.705Z,83.10
2018-12-20T11:37:09.063Z,83.03
2018-12-20T11:39:40.345Z,83.68
2018-12-20T11:42:09.928Z,82.95
2018-12-20T11:44:43.680Z,82.69
2018-12-20T11:47:33.064Z,82.76
2018-12-20T11:50:02.017Z,82.50
2018-12-20T11:52:42.171Z,82.26
2018-12-20T11:55:06.369Z,82.31
2018-12-20T11:57:44.681Z,81.97
2018-12-20T12:00:18.645Z,82.10
2018-12-20T12:02:51.221Z,79.97
2018-12-20T12:05:20.621Z,78.96
2018-12-20T12:07:57.110Z,80.71
2018-12-20T12:10:27.485Z,80.30
2018-12-20T12:12:57.101Z,80.20
2018-12-20T12:15:31.655Z,80.28
2018-12-20T12:18:05.617Z,80.46
2018-12-20T12:20:37.441Z,80.57
2018-12-20T12:23:11.803Z,80.52
2018-12-20T12:25:41.261Z,80.13
2018-12-20T12:28:11.285Z,80.13
2018-12-20T12:30:44.360Z,80.17
2018-12-20T12:33:13.919Z,79.95
2018-12-20T12:35:48.790Z,80.85
2018-12-20T12:38:21.489Z,81.38
2018-12-20T12:41:01.211Z,81.31
2018-12-20T12:43:32.067Z,81.17
2018-12-20T12:46:14.679Z,81.52
2018-12-20T12:48:44.408Z,81.10
2018-12-20T12:51:16.741Z,80.93
2018-12-20T12:53:48.486Z,81.01
2018-12-20T12:56:17.739Z,81.67
2018-12-20T12:58:46.444Z,82.20
2018-12-20T13:01:20.716Z,83.48
2018-12-20T13:03:57.385Z,83.58
2018-12-20T13:06:33.550Z,84.83
2018-12-20T13:09:12.793Z,84.55
2018-12-20T13:11:42.167Z,85.68
2018-12-20T13:14:11.448Z,85.35
2018-12-20T13:16:44.806Z,86.24
2018-12-20T13:19:12.499Z,86.44
2018-12-20T13:21:41.947Z,86.53
2018-12-20T13:24:29.719Z,87.42
2018-12-20T13:26:59.280Z,87.38
2018-12-20T13:29:33.228Z,87.52
2018-12-20T13:32:26.176Z,86.87
2018-12-20T13:34:55.977Z,87.33
2018-12-20T13:37:30.040Z,87.55
2018-12-20T13:40:02.387Z,87.36
2018-12-20T13:42:34.896Z,86.74
2018-12-20T13:45:07.643Z,87.07
2018-12-20T13:47:38.304Z,86.50
2018-12-20T13:50:09.830Z,86.35
2018-12-20T13:52:41.465Z,86.40
2018-12-20T13:55:20.267Z,86.32
2018-12-20T13:57:57.187Z,86.34
2018-12-20T14:00:29.773Z,86.86
2018-12-20T14:03:00.423Z,86.91
2018-12-20T14:05:32.328Z,87.13
2018-12-20T14:08:02.021Z,87.03
2018-12-20T14:10:34.702Z,87.15
2018-12-20T14:13:21.287Z,86.40
2018-12-20T14:15:58.010Z,86.70
2018-12-20T14:18:31.223Z,86.98
2018-12-20T14:21:02.993Z,86.79
2018-12-20T14:23:34.399Z,87.20
2018-12-20T14:26:03.867Z,87.37
2018-12-20T14:28:38.860Z,87.27
2018-12-20T14:31:08.940Z,86.86
2018-12-20T14:33:41.108Z,86.64
2018-12-20T14:36:30.604Z,87.14
2018-12-20T14:39:02.755Z,87.13
2018-12-20T14:41:34.202Z,86.64
2018-12-20T14:44:43.532Z,86.84
2018-12-20T14:47:15.856Z,86.85
2018-12-20T14:49:47.596Z,87.11
2018-12-20T14:52:15.271Z,87.19
2018-12-20T14:54:47.357Z,87.49
2018-12-20T14:57:19.883Z,87.42
2018-12-20T14:59:55.070Z,87.50
2018-12-20T15:02:41.232Z,87.43
2018-12-20T15:08:16.586Z,87.50
2018-12-20T15:10:43.740Z,87.49
2018-12-20T15:13:19.570Z,87.67
2018-12-20T15:15:50.584Z,87.26
2018-12-20T15:18:22.914Z,87.34
2018-12-20T15:21:15.511Z,87.38
2018-12-20T15:23:50.834Z,87.43
2018-12-20T15:26:22.815Z,87.00
2018-12-20T15:29:07.554Z,87.42
2018-12-20T15:31:37.626Z,86.86
2018-12-20T15:34:14.744Z,86.87
2018-12-20T15:36:48.877Z,86.77
2018-12-20T15:39:17.823Z,86.57
2018-12-20T15:41:47.749Z,85.54
2018-12-20T15:44:16.595Z,86.36
2018-12-20T15:46:45.486Z,86.36
2018-12-20T15:49:14.399Z,86.58
2018-12-20T15:51:43.457Z,86.56
2018-12-20T15:54:12.377Z,86.46
2018-12-20T15:56:41.291Z,86.91
2018-12-20T15:59:10.175Z,86.61
2018-12-20T16:01:39.260Z,87.01
2018-12-20T16:04:08.250Z,86.93
2018-12-20T16:06:37.207Z,87.12
2018-12-20T16:09:07.602Z,86.28
2018-12-20T16:11:36.439Z,86.17
2018-12-20T16:14:05.407Z,86.68
2018-12-20T16:16:34.344Z,86.51
2018-12-20T16:19:05.028Z,86.50
2018-12-20T16:21:32.127Z,86.56
2018-12-20T16:24:01.090Z,86.96
2018-12-20T16:26:29.889Z,86.52
2018-12-20T16:28:58.853Z,86.63
2018-12-20T16:31:27.660Z,86.32
2018-12-20T16:33:56.554Z,85.72
2018-12-20T16:36:25.525Z,86.10
2018-12-20T16:38:54.479Z,86.12
2018-12-20T16:41:23.338Z,86.17
2018-12-20T16:43:52.241Z,86.45
2018-12-20T16:46:21.120Z,86.32
2018-12-20T16:48:50.042Z,85.96
2018-12-20T16:51:18.932Z,86.29
2018-12-20T16:53:47.844Z,86.08
2018-12-20T16:56:16.782Z,86.31
2018-12-20T16:58:45.656Z,84.84
2018-12-20T17:01:14.890Z,83.93
2018-12-20T17:03:43.432Z,84.83
2018-12-20T17:06:12.367Z,84.86
2018-12-20T17:08:48.067Z,84.68
2018-12-20T17:11:10.178Z,85.13
2018-12-20T17:13:39.080Z,85.03
2018-12-20T17:16:08.119Z,84.70
2018-12-20T17:18:37.103Z,84.86
2018-12-20T17:21:06.043Z,85.08
2018-12-20T17:23:35.771Z,85.20
2018-12-20T17:26:03.820Z,85.28
2018-12-20T17:28:32.727Z,84.94
2018-12-20T17:31:01.641Z,85.00
2018-12-20T17:33:30.613Z,84.69
2018-12-20T17:35:59.492Z,85.03
2018-12-20T17:38:28.417Z,83.46
2018-12-20T17:40:57.329Z,83.77
2018-12-20T17:43:26.227Z,84.01
2018-12-20T17:45:55.108Z,83.94
2018-12-20T17:48:29.041Z,83.67
2018-12-20T17:50:52.939Z,82.53
2018-12-20T17:53:21.831Z,83.36
2018-12-20T17:55:50.720Z,84.10
2018-12-20T17:58:19.622Z,83.49
2018-12-20T18:00:48.533Z,84.66
2018-12-20T18:03:17.469Z,84.72
2018-12-20T18:05:46.388Z,83.96
2018-12-20T18:08:15.305Z,84.53
2018-12-20T18:10:44.237Z,82.73
2018-12-20T18:13:13.167Z,83.68
2018-12-20T18:15:41.989Z,83.69
2018-12-20T18:18:10.922Z,83.48
2018-12-20T18:20:39.798Z,83.86
2018-12-20T18:23:08.725Z,83.47
2018-12-20T18:25:37.635Z,83.34
2018-12-20T18:28:06.614Z,82.57
2018-12-20T18:30:35.484Z,81.79
2018-12-20T18:33:04.430Z,82.74
2018-12-20T18:35:33.315Z,83.19
2018-12-20T18:38:02.238Z,82.93
2018-12-20T18:40:34.015Z,83.63
2018-12-20T18:43:01.717Z,83.71
2018-12-20T18:45:28.932Z,83.53
2018-12-20T18:47:57.801Z,83.26
2018-12-20T18:50:26.710Z,83.77
2018-12-20T18:52:55.575Z,83.50
2018-12-20T18:55:24.455Z,83.39
2018-12-20T18:57:53.327Z,83.55
2018-12-20T19:00:22.240Z,83.90
2018-12-20T19:02:51.127Z,83.42
2018-12-20T19:05:20.031Z,83.99
2018-12-20T19:07:48.935Z,83.67
2018-12-20T19:10:17.914Z,83.60
2018-12-20T19:12:46.771Z,83.76
2018-12-20T19:15:15.667Z,83.57
2018-12-20T19:17:44.546Z,83.75
2018-12-20T19:20:16.309Z,83.79
2018-12-20T19:22:42.353Z,84.17
2018-12-20T19:25:11.348Z,84.01
2018-12-20T19:27:40.133Z,83.85
2018-12-20T19:30:10.634Z,83.79
2018-12-20T19:32:39.551Z,83.64
2018-12-20T19:35:08.434Z,83.64
2018-12-20T19:37:37.337Z,83.73
2018-12-20T19:40:08.719Z,83.63
2018-12-20T19:42:37.611Z,83.55
2018-12-20T19:45:06.709Z,83.45
2018-12-20T19:47:35.735Z,83.03
2018-12-20T19:50:05.287Z,83.79
2018-12-20T19:52:33.702Z,83.07
2018-12-20T19:55:02.643Z,83.37
2018-12-20T19:57:31.526Z,83.42
2018-12-20T20:00:00.424Z,83.14
2018-12-20T20:02:29.330Z,82.99
2018-12-20T20:04:58.275Z,82.76
2018-12-20T20:07:27.200Z,83.05
2018-12-20T20:09:56.187Z,82.82
2018-12-20T20:12:25.033Z,83.35
2018-12-20T20:14:53.899Z,83.17
2018-12-20T20:17:22.818Z,82.69
2018-12-20T20:19:59.565Z,82.92
2018-12-20T20:22:20.720Z,82.50
2018-12-20T20:24:49.630Z,82.36
2018-12-20T20:27:18.540Z,82.68
2018-12-20T20:29:47.463Z,82.56
2018-12-20T20:32:16.381Z,81.15
2018-12-20T20:34:45.348Z,82.07
2018-12-20T20:37:14.226Z,80.68
2018-12-20T20:39:43.112Z,80.06
2018-12-20T20:42:12.004Z,81.25
2018-12-20T20:44:40.945Z,81.53
2018-12-20T20:47:09.828Z,81.84
2018-12-20T20:49:38.736Z,80.52
2018-12-20T20:52:07.706Z,81.25
2018-12-20T20:54:36.604Z,81.35
2018-12-20T20:57:05.570Z,81.15
2018-12-20T20:59:34.474Z,81.35
2018-12-20T21:02:03.377Z,81.74
2018-12-20T21:04:32.289Z,81.83
2018-12-20T21:07:01.201Z,82.06
2018-12-20T21:09:30.693Z,81.89
2018-12-20T21:11:58.980Z,82.26
2018-12-20T21:14:27.955Z,81.85
2018-12-20T21:16:56.881Z,81.91
2018-12-20T21:19:25.768Z,80.73
2018-12-20T21:21:54.724Z,81.66
2018-12-20T21:24:23.605Z,81.97
2018-12-20T21:26:55.275Z,80.36
2018-12-20T21:29:24.161Z,79.18
2018-12-20T21:31:53.072Z,80.84
2018-12-20T21:34:21.951Z,80.76
2018-12-20T21:36:50.834Z,81.14
2018-12-20T21:39:19.779Z,80.98
2018-12-20T21:41:48.666Z,80.80
2018-12-20T21:44:17.559Z,81.57
2018-12-20T21:46:46.434Z,81.09
2018-12-20T21:49:15.354Z,80.89
2018-12-20T21:51:44.307Z,81.00
2018-12-20T21:54:13.222Z,81.09
2018-12-20T21:56:42.211Z,81.43
2018-12-20T21:59:11.122Z,82.99
2018-12-20T22:01:40.056Z,84.23
2018-12-20T22:04:08.953Z,85.38
2018-12-20T22:06:37.858Z,85.81
2018-12-20T22:09:07.335Z,86.09
2018-12-20T22:11:36.220Z,86.06
2018-12-20T22:14:05.191Z,85.78
2018-12-20T22:16:34.062Z,87.17
2018-12-20T22:19:02.958Z,87.87
2018-12-20T22:21:31.917Z,88.60
2018-12-20T22:24:00.765Z,88.41
2018-12-20T22:26:29.668Z,88.57
2018-12-20T22:28:58.636Z,88.79
2018-12-20T22:31:27.525Z,88.32
2018-12-20T22:33:56.480Z,88.14
2018-12-20T22:36:25.384Z,88.29
2018-12-20T22:38:54.288Z,88.70
2018-12-20T22:41:23.165Z,88.63
2018-12-20T22:43:52.111Z,89.53
2018-12-20T22:46:21.027Z,89.10
2018-12-20T22:48:49.940Z,89.55
2018-12-20T22:51:18.896Z,89.07
2018-12-20T22:53:47.809Z,89.10
2018-12-20T22:56:16.727Z,88.67
2018-12-20T22:58:45.623Z,88.86
2018-12-20T23:01:14.501Z,88.67
2018-12-20T23:03:43.400Z,88.81
2018-12-20T23:06:12.288Z,89.36
2018-12-20T23:08:41.191Z,88.99
2018-12-20T23:11:10.119Z,88.85
2018-12-20T23:13:39.007Z,88.89
2018-12-20T23:16:07.898Z,88.11
2018-12-20T23:18:36.839Z,87.58
2018-12-20T23:21:05.732Z,88.56
2018-12-20T23:23:34.667Z,89.09
2018-12-20T23:26:03.543Z,88.45
2018-12-20T23:28:32.429Z,87.39
2018-12-20T23:31:01.361Z,88.11
2018-12-20T23:33:30.286Z,88.21
2018-12-20T23:35:59.222Z,88.48
2018-12-20T23:38:28.114Z,88.93
2018-12-20T23:40:57.030Z,89.08
2018-12-20T23:43:25.953Z,89.25
2018-12-20T23:45:54.849Z,89.69
2018-12-20T23:48:23.730Z,89.30
2018-12-20T23:50:52.656Z,88.98
2018-12-20T23:53:21.517Z,89.03
2018-12-20T23:55:50.413Z,88.27
2018-12-20T23:58:19.300Z,90.17
